Time;durP1;ratioP1;P1;durP2;ratioP2;P2;SDS_P1;SDS_P2;PMS_P1;PMS_P2;Temp;Humidity;BMP_temperature;BMP_pressure;BME280_temperature;BME280_humidity;BME280_pressure;Samples;Min_cycle;Max_cycle;Signal;HPM_P1;HPM_P2
2023/01/13 00:04:39;;;;;;;3.92;0.90;;;15.60;71.90;;;;;;10440251;28;20033;-60
2023/01/13 00:09:39;;;;;;;2.47;1.10;;;15.60;72.00;;;;;;10419908;28;20176;-59
2023/01/13 00:14:40;;;;;;;5.07;1.35;;;15.60;71.90;;;;;;10405714;28;20022;-60
2023/01/13 00:19:40;;;;;;;4.78;1.50;;;15.60;72.00;;;;;;10407305;28;20045;-60
2023/01/13 00:24:41;;;;;;;4.60;1.02;;;15.60;72.00;;;;;;10408729;28;20512;-60
2023/01/13 00:29:42;;;;;;;1.58;0.90;;;15.60;71.90;;;;;;10405785;28;20029;-59
2023/01/13 00:34:42;;;;;;;3.20;0.93;;;15.70;71.50;;;;;;10405061;28;20822;-59
2023/01/13 00:39:44;;;;;;;4.00;1.15;;;15.70;71.40;;;;;;10405668;28;20159;-60
2023/01/13 00:44:45;;;;;;;5.32;1.65;;;15.60;71.60;;;;;;10430170;28;20029;-61
2023/01/13 00:49:45;;;;;;;3.65;1.08;;;15.60;71.60;;;;;;10424042;28;20060;-60
2023/01/13 00:54:46;;;;;;;5.20;1.10;;;15.60;71.70;;;;;;10411624;28;20049;-60
2023/01/13 00:59:47;;;;;;;2.72;1.23;;;15.60;71.70;;;;;;10420064;28;20022;-60
2023/01/13 01:04:47;;;;;;;2.05;1.02;;;15.70;71.50;;;;;;10440604;28;20109;-61
2023/01/13 01:09:48;;;;;;;3.03;0.98;;;15.70;71.40;;;;;;10433448;28;20674;-60
2023/01/13 01:14:49;;;;;;;4.78;1.65;;;15.70;71.50;;;;;;10405461;28;20021;-60
2023/01/13 01:19:50;;;;;;;5.00;1.70;;;15.70;71.50;;;;;;10430129;28;20116;-60
2023/01/13 01:24:50;;;;;;;2.65;1.00;;;15.70;71.20;;;;;;10440738;28;20108;-60
2023/01/13 01:29:51;;;;;;;3.13;1.23;;;15.70;71.20;;;;;;10417183;28;20163;-59
2023/01/13 01:34:52;;;;;;;3.63;1.05;;;15.70;71.00;;;;;;10405346;28;20460;-59
2023/01/13 01:39:52;;;;;;;5.57;1.52;;;15.70;71.00;;;;;;10410369;28;20778;-60
2023/01/13 01:45:12;;;;;;;2.65;1.40;;;15.70;71.20;;;;;;10445242;28;20017;-60
2023/01/13 01:50:13;;;;;;;5.10;1.48;;;15.70;71.30;;;;;;10429942;28;20041;-60
2023/01/13 01:55:19;;;;;;;2.55;1.30;;;15.70;71.30;;;;;;10422237;28;20029;-61
2023/01/13 02:00:20;;;;;;;4.50;1.42;;;15.60;71.30;;;;;;10451684;28;20512;-61
2023/01/13 02:05:21;;;;;;;4.10;1.13;;;15.60;71.40;;;;;;10448808;28;20032;-60
2023/01/13 02:10:26;;;;;;;2.67;1.73;;;15.60;71.40;;;;;;10451643;28;20045;-59
2023/01/13 02:15:38;;;;;;;3.05;1.50;;;15.50;71.40;;;;;;10420276;28;20083;-60
2023/01/13 02:21:12;;;;;;;3.63;1.13;;;15.50;71.50;;;;;;10433539;28;20053;-61
2023/01/13 02:26:50;;;;;;;5.55;1.85;;;15.60;71.50;;;;;;10446500;28;20113;-59
2023/01/13 02:31:57;;;;;;;4.78;1.50;;;15.60;71.40;;;;;;10446220;28;20520;-60
2023/01/13 02:37:15;;;;;;;4.50;1.42;;;15.60;71.50;;;;;;10423359;28;20044;-60
2023/01/13 02:48:09;;;;;;;4.90;2.15;;;15.50;71.40;;;;;;10423285;28;20041;-61
2023/01/13 02:53:54;;;;;;;4.93;1.80;;;15.50;71.40;;;;;;10417748;28;20026;-60
2023/01/13 02:58:57;;;;;;;5.30;1.63;;;15.50;71.40;;;;;;10408923;28;20064;-60
2023/01/13 03:03:58;;;;;;;5.03;1.50;;;15.50;71.50;;;;;;10438219;28;20048;-59
2023/01/13 03:09:18;;;;;;;4.35;1.30;;;15.50;71.30;;;;;;10436095;28;20139;-58
2023/01/13 03:14:48;;;;;;;7.68;2.15;;;15.50;71.10;;;;;;10428443;28;20095;-60
2023/01/13 03:20:14;;;;;;;3.97;1.90;;;15.50;71.00;;;;;;10422861;28;20020;-60
2023/01/13 03:25:26;;;;;;;4.35;1.67;;;15.50;71.00;;;;;;10429895;28;20380;-61
2023/01/13 03:30:41;;;;;;;4.38;1.83;;;15.60;70.90;;;;;;10428201;28;20116;-60
2023/01/13 03:35:50;;;;;;;7.47;1.55;;;15.60;70.80;;;;;;10412759;28;20381;-60
2023/01/13 03:40:56;;;;;;;5.00;1.90;;;15.60;70.60;;;;;;10407989;28;20036;-60
2023/01/13 03:46:03;;;;;;;6.68;1.92;;;15.60;70.60;;;;;;10420191;28;20039;-60
2023/01/13 03:51:06;;;;;;;4.70;1.80;;;15.60;70.40;;;;;;10406907;28;20424;-59
2023/01/13 03:56:22;;;;;;;8.98;3.67;;;15.60;70.50;;;;;;10411606;28;20475;-60
2023/01/13 04:01:45;;;;;;;4.57;1.85;;;15.60;70.70;;;;;;10427495;28;20033;-61
2023/01/13 04:07:22;;;;;;;5.65;1.67;;;15.50;70.70;;;;;;10417478;28;20038;-62
2023/01/13 04:17:51;;;;;;;7.30;1.90;;;15.50;70.70;;;;;;10424336;28;20021;-60
2023/01/13 04:22:52;;;;;;;5.75;2.00;;;15.50;70.70;;;;;;10430649;28;20539;-61
2023/01/13 04:27:53;;;;;;;5.40;1.48;;;15.60;70.60;;;;;;10426240;28;20117;-60
2023/01/13 04:32:53;;;;;;;4.75;2.33;;;15.70;70.30;;;;;;10432298;28;20806;-60
2023/01/13 04:37:54;;;;;;;6.72;1.65;;;15.60;70.40;;;;;;10445956;28;20718;-61
2023/01/13 04:42:55;;;;;;;6.60;1.70;;;15.60;70.40;;;;;;10445307;28;20496;-60
2023/01/13 04:47:56;;;;;;;7.50;1.80;;;15.60;70.50;;;;;;10419407;28;20115;-60
2023/01/13 04:52:56;;;;;;;6.50;1.77;;;15.50;70.40;;;;;;10414121;28;20148;-61
2023/01/13 04:58:05;;;;;;;3.45;1.15;;;15.60;70.50;;;;;;10415049;28;20024;-59
2023/01/13 05:03:06;;;;;;;6.90;1.60;;;15.60;70.40;;;;;;10429253;28;20116;-60
2023/01/13 05:08:07;;;;;;;2.90;1.30;;;15.70;70.10;;;;;;10445415;28;20045;-60
2023/01/13 05:18:29;;;;;;;4.43;1.47;;;15.70;69.80;;;;;;10430663;28;20065;-61
2023/01/13 05:28:49;;;;;;;2.47;1.07;;;15.90;69.20;;;;;;10446724;28;20029;-60
2023/01/13 05:33:49;;;;;;;4.57;1.08;;;15.80;69.40;;;;;;10413001;28;20517;-60
2023/01/13 05:38:50;;;;;;;3.05;1.20;;;15.80;69.50;;;;;;10425192;28;20061;-58
2023/01/13 05:43:51;;;;;;;2.28;0.90;;;15.70;69.60;;;;;;10428070;28;20436;-60
2023/01/13 05:48:52;;;;;;;6.38;1.42;;;15.70;69.70;;;;;;10435737;28;20037;-61
2023/01/13 05:53:53;;;;;;;3.38;1.10;;;15.60;69.90;;;;;;10410647;28;20097;-60
2023/01/13 05:58:53;;;;;;;3.60;1.25;;;15.60;69.90;;;;;;10419195;28;20021;-60
2023/01/13 06:03:54;;;;;;;4.38;1.45;;;15.70;69.70;;;;;;10450951;28;20109;-61
2023/01/13 06:08:54;;;;;;;4.63;1.23;;;15.70;69.50;;;;;;10429487;28;20199;-58
2023/01/13 06:13:55;;;;;;;8.88;1.23;;;15.80;69.30;;;;;;10438350;28;20159;-59
2023/01/13 06:18:56;;;;;;;7.10;1.50;;;15.80;70.60;;;;;;10438552;28;20464;-63
2023/01/13 06:23:58;;;;;;;12.25;1.83;;;16.00;69.70;;;;;;10411513;28;20100;-63
2023/01/13 06:28:58;;;;;;;9.32;2.03;;;16.30;70.40;;;;;;10422483;28;20048;-60
2023/01/13 06:34:10;;;;;;;9.57;1.45;;;16.50;69.70;;;;;;10430890;28;20104;-59
2023/01/13 06:39:17;;;;;;;16.42;2.08;;;16.70;69.10;;;;;;10431732;28;20464;-61
2023/01/13 06:44:19;;;;;;;11.90;2.17;;;16.90;68.30;;;;;;10431963;28;20022;-60
2023/01/13 06:49:20;;;;;;;6.60;1.50;;;16.90;68.80;;;;;;10435189;28;20392;-67
2023/01/13 06:54:21;;;;;;;8.82;1.63;;;16.80;69.30;;;;;;10445513;28;20100;-60
2023/01/13 06:59:22;;;;;;;15.30;2.85;;;16.90;69.30;;;;;;10437783;28;20038;-59
2023/01/13 07:04:22;;;;;;;12.13;1.88;;;16.90;69.40;;;;;;10426834;28;20459;-60
2023/01/13 07:09:23;;;;;;;12.40;2.17;;;16.90;69.80;;;;;;10430223;28;20373;-60
2023/01/13 07:19:43;;;;;;;11.40;1.88;;;16.70;70.50;;;;;;10427101;28;20464;-60
2023/01/13 07:24:44;;;;;;;8.52;2.22;;;16.70;70.20;;;;;;10432432;28;20088;-59
2023/01/13 07:29:45;;;;;;;8.60;2.10;;;16.60;70.60;;;;;;10427310;28;20440;-60
2023/01/13 07:34:45;;;;;;;13.07;2.33;;;16.60;70.90;;;;;;10423484;28;20103;-62
2023/01/13 07:39:46;;;;;;;15.77;3.67;;;16.50;71.00;;;;;;10421749;28;20219;-61
2023/01/13 07:44:47;;;;;;;16.95;2.10;;;16.50;71.20;;;;;;10422914;28;20013;-61
2023/01/13 07:49:48;;;;;;;6.05;1.88;;;16.60;70.40;;;;;;10435157;28;20116;-59
2023/01/13 07:54:49;;;;;;;10.20;1.95;;;16.60;70.00;;;;;;10425397;28;20025;-61
2023/01/13 07:59:49;;;;;;;11.73;3.05;;;16.80;69.60;;;;;;10442444;28;20063;-61
2023/01/13 08:04:50;;;;;;;6.70;1.65;;;17.00;69.10;;;;;;10426357;28;20086;-60
2023/01/13 08:09:51;;;;;;;9.07;2.22;;;16.90;69.40;;;;;;10446502;28;20047;-59
2023/01/13 08:14:52;;;;;;;7.40;1.75;;;16.90;69.40;;;;;;10438933;28;20025;-61
2023/01/13 08:19:53;;;;;;;7.90;2.90;;;16.90;69.40;;;;;;10419760;28;20032;-61
2023/01/13 08:24:54;;;;;;;6.95;2.03;;;16.90;69.40;;;;;;10435748;28;20101;-61
2023/01/13 08:29:54;;;;;;;11.98;2.03;;;16.80;69.80;;;;;;10406237;28;20120;-61
2023/01/13 08:34:55;;;;;;;10.25;1.83;;;16.80;70.10;;;;;;10433135;28;20104;-61
2023/01/13 08:39:56;;;;;;;8.60;2.65;;;16.80;70.10;;;;;;10447266;28;20029;-61
2023/01/13 08:44:57;;;;;;;5.80;1.65;;;16.80;70.30;;;;;;10435446;28;20061;-62
2023/01/13 08:49:57;;;;;;;7.03;1.90;;;16.80;70.20;;;;;;10445541;28;20040;-61
2023/01/13 08:54:58;;;;;;;8.93;3.30;;;16.90;70.20;;;;;;10443967;28;20021;-60
2023/01/13 08:59:59;;;;;;;7.65;1.80;;;16.90;70.60;;;;;;10427672;28;20025;-61
2023/01/13 09:05:02;;;;;;;4.57;1.75;;;16.80;70.70;;;;;;10437018;28;20118;-60
2023/01/13 09:10:05;;;;;;;6.25;2.00;;;16.90;70.80;;;;;;10435441;28;20033;-58
2023/01/13 09:15:07;;;;;;;5.63;1.60;;;16.80;70.60;;;;;;10424787;28;20024;-60
2023/01/13 09:20:09;;;;;;;7.97;2.72;;;16.80;70.50;;;;;;10435439;28;20055;-60
2023/01/13 09:25:11;;;;;;;7.60;2.30;;;16.80;70.60;;;;;;10433592;28;20029;-60
2023/01/13 09:30:12;;;;;;;6.97;1.42;;;16.80;70.90;;;;;;10435272;28;20060;-61
2023/01/13 09:35:13;;;;;;;6.20;1.65;;;16.80;71.20;;;;;;10439213;28;20056;-60
2023/01/13 09:40:21;;;;;;;7.65;2.35;;;16.90;70.60;;;;;;10432280;28;20108;-59
2023/01/13 09:45:45;;;;;;;10.40;2.28;;;17.10;71.00;;;;;;10439059;28;20053;-60
2023/01/13 09:51:23;;;;;;;7.28;1.70;;;17.10;70.30;;;;;;10427204;28;20063;-57
2023/01/13 09:56:24;;;;;;;6.55;1.65;;;17.00;70.70;;;;;;10424152;28;20020;-59
2023/01/13 10:01:43;;;;;;;9.95;2.70;;;16.90;70.90;;;;;;10430451;28;20027;-66
2023/01/13 10:06:51;;;;;;;7.00;1.80;;;17.00;70.80;;;;;;10434053;28;20045;-63
2023/01/13 10:17:43;;;;;;;14.80;2.22;;;16.90;70.90;;;;;;10435791;28;20037;-60
2023/01/13 10:23:02;;;;;;;11.23;3.50;;;16.90;70.80;;;;;;10429176;28;20025;-60
2023/01/13 10:28:13;;;;;;;8.90;2.08;;;16.80;70.80;;;;;;10428513;28;20037;-60
2023/01/13 10:33:27;;;;;;;11.73;1.85;;;16.80;70.90;;;;;;10441494;28;20017;-60
2023/01/13 10:38:36;;;;;;;11.88;2.15;;;16.60;71.10;;;;;;10451762;28;20040;-59
2023/01/13 10:43:36;;;;;;;6.33;2.30;;;16.60;71.10;;;;;;10450220;28;20513;-61
2023/01/13 10:48:42;;;;;;;6.28;1.95;;;16.50;71.10;;;;;;10413950;28;20033;-60
2023/01/13 10:53:53;;;;;;;5.88;1.83;;;16.50;71.20;;;;;;10423567;28;20366;-60
2023/01/13 10:59:23;;;;;;;5.53;2.00;;;16.40;71.20;;;;;;10409855;28;20028;-60
2023/01/13 11:04:36;;;;;;;8.23;2.75;;;16.30;71.30;;;;;;10436145;28;20025;-60
2023/01/13 11:09:36;;;;;;;6.32;2.35;;;16.30;71.30;;;;;;10437914;28;20049;-59
2023/01/13 11:14:41;;;;;;;7.22;2.95;;;16.30;71.30;;;;;;10439994;28;20022;-60
2023/01/13 11:19:51;;;;;;;11.57;2.50;;;16.20;71.30;;;;;;10420066;28;20458;-60
2023/01/13 11:25:00;;;;;;;7.32;2.28;;;16.20;71.30;;;;;;10394671;28;20029;-60
2023/01/13 11:30:32;;;;;;;9.52;2.58;;;16.20;71.30;;;;;;10407143;28;20025;-61
2023/01/13 11:35:50;;;;;;;4.68;1.73;;;16.20;71.30;;;;;;10407026;28;20021;-59
2023/01/13 11:40:51;;;;;;;5.88;2.05;;;16.10;71.30;;;;;;10406906;28;20014;-60
2023/01/13 11:45:57;;;;;;;9.18;2.20;;;16.10;71.40;;;;;;10419919;28;20035;-59
2023/01/13 11:51:12;;;;;;;6.78;2.08;;;16.10;71.20;;;;;;10423668;28;20060;-56
2023/01/13 11:56:31;;;;;;;7.20;2.10;;;16.10;71.00;;;;;;10427108;28;20154;-57
2023/01/13 12:02:13;;;;;;;8.85;2.20;;;16.10;71.60;;;;;;10454710;28;20423;-59
2023/01/13 12:07:42;;;;;;;15.05;2.67;;;16.40;71.00;;;;;;10427194;28;20124;-60
2023/01/13 12:12:59;;;;;;;9.10;2.00;;;16.30;70.60;;;;;;10434033;28;20064;-60
2023/01/13 12:18:30;;;;;;;10.82;2.88;;;16.30;70.90;;;;;;10421947;28;20295;-58
2023/01/13 12:24:04;;;;;;;6.82;2.65;;;16.30;71.00;;;;;;10406917;28;20032;-58
2023/01/13 12:29:21;;;;;;;5.28;1.92;;;16.30;71.70;;;;;;10429913;28;20681;-57
2023/01/13 12:34:46;;;;;;;5.70;2.22;;;16.30;71.50;;;;;;10424188;28;20434;-59
2023/01/13 12:40:23;;;;;;;5.45;2.15;;;16.20;71.10;;;;;;10440820;28;20128;-59
2023/01/13 12:45:29;;;;;;;8.25;2.33;;;16.20;71.10;;;;;;10432315;28;20027;-58
2023/01/13 12:50:29;;;;;;;7.43;2.20;;;16.20;71.60;;;;;;10423675;28;20420;-59
2023/01/13 12:55:34;;;;;;;7.22;1.75;;;16.30;71.90;;;;;;10416649;28;20025;-59
2023/01/13 13:00:38;;;;;;;7.32;2.60;;;16.20;71.00;;;;;;10445222;28;20420;-60
2023/01/13 13:06:11;;;;;;;13.50;3.30;;;16.20;71.40;;;;;;10436139;28;20557;-58
2023/01/13 13:13:16;;;;;;;12.00;2.78;;;16.20;71.40;;;;;;10438022;28;20052;-59
2023/01/13 13:16:45;;;;;;;9.88;1.95;;;16.50;70.60;;;;;;10434398;28;20044;-64
2023/01/13 13:22:08;;;;;;;10.48;2.03;;;16.60;70.10;;;;;;10427678;28;20037;-58
2023/01/13 13:28:04;;;;;;;8.73;2.15;;;16.80;70.30;;;;;;10436923;28;20037;-58
2023/01/13 13:33:14;;;;;;;15.90;3.30;;;16.90;70.10;;;;;;10316671;28;20641;-59
2023/01/13 13:49:53;;;;;;;6.63;1.75;;;17.20;69.60;;;;;;10445100;28;21006;-58
2023/01/13 13:55:01;;;;;;;10.50;2.17;;;17.10;70.20;;;;;;10447065;28;20079;-59
2023/01/13 14:00:13;;;;;;;12.93;2.72;;;17.00;70.50;;;;;;10436617;28;20057;-55
2023/01/13 14:05:24;;;;;;;6.57;1.92;;;17.00;70.70;;;;;;10429792;28;20024;-58
2023/01/13 14:10:35;;;;;;;11.60;1.70;;;16.90;70.80;;;;;;10423108;28;20037;-59
2023/01/13 14:15:37;;;;;;;6.80;2.50;;;16.90;71.10;;;;;;10431886;28;20026;-57
2023/01/13 14:20:39;;;;;;;19.40;2.10;;;16.80;71.40;;;;;;10435536;28;20017;-59
2023/01/13 14:25:49;;;;;;;15.18;2.60;;;16.80;71.70;;;;;;10424836;28;20456;-54
2023/01/13 14:30:51;;;;;;;17.27;2.40;;;16.70;71.50;;;;;;10429229;28;20057;-59
2023/01/13 14:36:05;;;;;;;14.32;2.97;;;16.70;71.50;;;;;;10426556;28;20676;-58
2023/01/13 14:41:19;;;;;;;10.30;2.83;;;16.80;71.60;;;;;;10449345;28;20100;-59
2023/01/13 14:46:22;;;;;;;20.58;3.67;;;16.70;71.70;;;;;;10429514;28;20040;-58
2023/01/13 14:51:26;;;;;;;11.93;3.00;;;16.70;71.80;;;;;;10421893;28;20021;-58
2023/01/13 14:56:52;;;;;;;10.55;3.03;;;16.70;72.00;;;;;;10426661;28;20017;-60
2023/01/13 15:01:53;;;;;;;14.52;2.97;;;16.70;71.90;;;;;;10425130;28;20025;-58
2023/01/13 15:06:56;;;;;;;16.85;3.38;;;16.70;71.80;;;;;;10429427;28;20033;-59
2023/01/13 15:11:57;;;;;;;17.58;3.75;;;16.80;71.60;;;;;;10428529;28;20090;-58
2023/01/13 15:16:58;;;;;;;20.58;3.95;;;16.80;71.30;;;;;;10421720;28;20033;-58
2023/01/13 15:21:59;;;;;;;16.75;3.35;;;16.90;71.40;;;;;;10406639;28;20018;-59
2023/01/13 15:27:15;;;;;;;19.13;3.40;;;17.00;70.90;;;;;;10417482;28;20029;-59
2023/01/13 15:32:18;;;;;;;20.58;4.25;;;17.20;70.60;;;;;;10426224;28;20059;-57
2023/01/13 15:37:19;;;;;;;23.23;4.47;;;17.30;70.20;;;;;;10436026;28;20032;-57
2023/01/13 15:47:40;;;;;;;21.48;3.03;;;17.20;70.90;;;;;;10428359;28;20036;-58
2023/01/13 15:52:41;;;;;;;15.57;3.55;;;17.20;71.30;;;;;;10429535;28;20025;-58
2023/01/13 15:57:48;;;;;;;15.57;4.43;;;17.30;70.80;;;;;;10427465;28;20599;-59
2023/01/13 16:02:49;;;;;;;8.88;3.13;;;17.30;71.00;;;;;;10421256;28;20548;-58
2023/01/13 16:07:50;;;;;;;14.75;2.92;;;17.40;70.50;;;;;;10408137;28;20034;-55
2023/01/13 16:12:54;;;;;;;18.67;3.80;;;17.40;70.20;;;;;;10427089;28;20436;-59
2023/01/13 16:18:02;;;;;;;19.48;3.30;;;17.30;70.60;;;;;;10415946;28;20546;-58
2023/01/13 16:23:03;;;;;;;24.05;3.20;;;17.30;71.00;;;;;;10424137;28;20023;-52
2023/01/13 16:28:04;;;;;;;24.63;4.50;;;17.50;69.70;;;;;;10438888;28;20459;-57
2023/01/13 16:33:05;;;;;;;16.15;3.60;;;17.40;70.40;;;;;;10428450;28;20009;-58
2023/01/13 16:38:06;;;;;;;18.55;3.30;;;17.50;70.10;;;;;;10420135;28;20132;-57
2023/01/13 16:43:12;;;;;;;21.30;3.95;;;17.40;70.50;;;;;;10434193;28;20066;-58
2023/01/13 16:48:19;;;;;;;16.95;3.00;;;17.40;70.50;;;;;;10425534;28;20037;-58
2023/01/13 16:53:20;;;;;;;24.35;3.45;;;17.30;70.20;;;;;;10428838;28;20022;-56
2023/01/13 16:58:21;;;;;;;44.13;14.13;;;17.50;69.20;;;;;;10424051;28;20457;-60
2023/01/13 17:03:21;;;;;;;39.85;11.52;;;17.70;69.00;;;;;;10431548;28;20025;-58
2023/01/13 17:08:22;;;;;;;35.03;8.80;;;17.60;70.50;;;;;;10419829;28;20140;-59
2023/01/13 17:13:23;;;;;;;30.00;7.40;;;17.80;70.30;;;;;;10430292;28;20512;-60
2023/01/13 17:18:23;;;;;;;23.40;6.13;;;17.80;69.80;;;;;;10449965;28;20112;-60
2023/01/13 17:23:24;;;;;;;26.52;6.38;;;17.80;70.00;;;;;;10431770;28;20674;-59
2023/01/13 17:28:25;;;;;;;24.65;6.38;;;17.60;70.30;;;;;;10418096;28;20060;-58
2023/01/13 17:33:25;;;;;;;22.42;6.43;;;17.50;70.40;;;;;;10450236;28;20562;-57
2023/01/13 17:38:26;;;;;;;25.45;5.72;;;17.50;70.60;;;;;;10439699;28;20554;-59
2023/01/13 17:43:27;;;;;;;28.90;6.40;;;17.50;70.40;;;;;;10445853;28;20041;-61
2023/01/13 17:48:27;;;;;;;25.13;5.70;;;17.40;70.80;;;;;;10425988;28;20087;-58
2023/01/13 17:53:28;;;;;;;32.33;7.60;;;17.30;71.00;;;;;;10428505;28;20104;-59
2023/01/13 17:58:29;;;;;;;31.40;6.05;;;17.20;71.30;;;;;;10419723;28;20108;-58
2023/01/13 18:03:29;;;;;;;29.50;8.30;;;17.20;71.30;;;;;;10422818;28;20017;-60
2023/01/13 18:08:30;;;;;;;30.35;7.63;;;17.00;71.40;;;;;;10435487;28;20090;-60
2023/01/13 18:13:33;;;;;;;17.73;5.00;;;16.90;72.10;;;;;;10432663;28;20044;-60
2023/01/13 18:18:34;;;;;;;23.02;5.80;;;16.80;72.20;;;;;;10437978;28;20106;-60
2023/01/13 18:29:14;;;;;;;14.45;4.57;;;16.80;72.30;;;;;;10330007;28;20041;-58
2023/01/13 18:34:14;;;;;;;18.08;5.45;;;16.60;72.20;;;;;;10401946;28;20449;-57
2023/01/13 18:39:16;;;;;;;23.30;4.90;;;16.70;72.50;;;;;;10434505;28;20365;-58
2023/01/13 18:44:17;;;;;;;21.17;4.85;;;16.60;72.20;;;;;;10431428;28;20108;-58
2023/01/13 18:49:18;;;;;;;27.80;5.55;;;16.60;72.30;;;;;;10427582;28;20037;-59
2023/01/13 18:54:19;;;;;;;13.07;4.60;;;16.60;72.10;;;;;;10431140;28;20032;-59
2023/01/13 18:59:19;;;;;;;13.35;4.50;;;16.50;72.10;;;;;;10416254;28;20029;-58
2023/01/13 19:04:20;;;;;;;14.25;3.63;;;16.40;72.00;;;;;;10449202;28;20056;-57
2023/01/13 19:09:25;;;;;;;16.50;4.35;;;16.40;72.00;;;;;;10437604;28;20046;-58
2023/01/13 19:14:40;;;;;;;20.67;5.00;;;16.30;71.90;;;;;;10430264;28;20021;-58
2023/01/13 19:19:47;;;;;;;11.95;3.30;;;16.30;71.90;;;;;;10428854;28;20047;-57
2023/01/13 19:24:49;;;;;;;6.55;2.53;;;16.30;71.90;;;;;;10424254;28;20452;-58
2023/01/13 19:29:52;;;;;;;9.15;3.05;;;16.20;71.70;;;;;;10434076;28;20116;-56
2023/01/13 19:34:57;;;;;;;13.90;3.90;;;16.20;71.70;;;;;;10444870;28;20446;-58
2023/01/13 19:39:58;;;;;;;8.57;2.63;;;16.20;71.60;;;;;;10432623;28;20029;-57
2023/01/13 19:50:18;;;;;;;7.13;1.97;;;16.10;71.50;;;;;;10437067;28;20511;-57
2023/01/13 19:55:19;;;;;;;8.95;2.38;;;16.10;71.40;;;;;;10430380;28;20159;-59
2023/01/13 20:00:20;;;;;;;7.00;3.05;;;16.10;71.70;;;;;;10417522;28;20029;-58
2023/01/13 20:05:24;;;;;;;8.60;2.92;;;16.10;71.30;;;;;;10406269;28;20453;-58
2023/01/13 20:10:25;;;;;;;6.90;2.20;;;16.10;71.00;;;;;;10406171;28;20060;-58
2023/01/13 20:15:26;;;;;;;4.28;2.35;;;16.30;71.10;;;;;;10404978;28;20014;-59
2023/01/13 20:20:27;;;;;;;7.35;2.25;;;16.10;70.90;;;;;;10404163;28;20459;-58
2023/01/13 20:25:28;;;;;;;5.85;2.20;;;16.10;71.10;;;;;;10410693;28;20012;-59
2023/01/13 20:30:28;;;;;;;4.75;2.05;;;16.00;71.20;;;;;;10422757;28;20021;-58
2023/01/13 20:35:30;;;;;;;6.28;1.75;;;16.00;71.30;;;;;;10402933;28;20053;-58
2023/01/13 20:40:31;;;;;;;4.57;1.85;;;16.00;71.30;;;;;;10433166;28;20500;-57
2023/01/13 20:45:32;;;;;;;6.75;2.10;;;15.90;71.30;;;;;;10425685;28;20029;-57
2023/01/13 20:50:32;;;;;;;7.45;2.22;;;15.90;71.30;;;;;;10405459;28;20035;-58
2023/01/13 20:55:33;;;;;;;6.18;1.90;;;15.90;71.30;;;;;;10447203;28;20049;-59
2023/01/13 21:00:34;;;;;;;7.32;2.38;;;15.90;71.40;;;;;;10411919;28;20144;-56
2023/01/13 21:05:35;;;;;;;10.88;1.60;;;15.90;71.30;;;;;;10447101;28;20029;-59
2023/01/13 21:10:35;;;;;;;4.75;1.77;;;15.90;71.30;;;;;;10449344;28;20048;-57
2023/01/13 21:15:36;;;;;;;4.75;1.40;;;15.80;71.30;;;;;;10431872;28;20571;-58
2023/01/13 21:20:38;;;;;;;4.32;1.30;;;15.80;71.30;;;;;;10420980;28;20022;-59
2023/01/13 21:25:39;;;;;;;3.67;1.25;;;15.80;71.30;;;;;;10415489;28;20047;-59
2023/01/13 21:30:39;;;;;;;4.22;1.35;;;15.80;71.30;;;;;;10404753;28;20034;-59
2023/01/13 21:35:40;;;;;;;5.30;1.35;;;15.80;71.20;;;;;;10386905;28;20439;-58
2023/01/13 21:40:41;;;;;;;5.13;2.20;;;15.80;71.30;;;;;;10430180;28;20026;-58
2023/01/13 21:51:00;;;;;;;7.10;1.80;;;15.80;71.30;;;;;;10403109;28;20045;-58
2023/01/13 21:56:01;;;;;;;4.05;1.48;;;15.80;71.30;;;;;;10403297;28;20014;-58
2023/01/13 22:01:02;;;;;;;5.43;1.50;;;15.80;71.30;;;;;;10403092;28;20103;-58
2023/01/13 22:06:03;;;;;;;3.80;1.50;;;15.70;71.30;;;;;;10422155;28;20025;-58
2023/01/13 22:11:04;;;;;;;4.53;1.70;;;15.70;71.30;;;;;;10411755;28;20397;-58
2023/01/13 22:16:05;;;;;;;5.20;1.50;;;15.70;71.30;;;;;;10411745;28;20079;-58
2023/01/13 22:21:06;;;;;;;4.78;1.65;;;15.70;71.30;;;;;;10423900;28;20104;-57
2023/01/13 22:26:09;;;;;;;4.20;1.80;;;15.70;71.30;;;;;;10422795;28;20463;-58
2023/01/13 22:31:13;;;;;;;5.53;1.60;;;15.70;71.20;;;;;;10409883;28;20029;-58
2023/01/13 22:36:15;;;;;;;5.28;1.63;;;15.70;71.20;;;;;;10409435;28;20037;-63
2023/01/13 22:41:15;;;;;;;3.88;1.60;;;15.70;71.20;;;;;;10444588;28;20480;-57
2023/01/13 22:46:16;;;;;;;6.00;1.88;;;15.70;71.20;;;;;;10427065;28;20124;-57
2023/01/13 22:51:17;;;;;;;3.35;1.45;;;15.70;71.10;;;;;;10410438;28;20026;-58
2023/01/13 22:56:21;;;;;;;3.10;1.60;;;15.70;71.10;;;;;;10409990;28;20052;-57
2023/01/13 23:01:23;;;;;;;3.75;1.45;;;15.60;71.10;;;;;;10408491;28;20536;-58
2023/01/13 23:06:26;;;;;;;3.47;1.48;;;15.60;71.10;;;;;;10424293;28;20640;-58
2023/01/13 23:11:28;;;;;;;3.63;2.22;;;15.60;71.00;;;;;;10419897;28;20045;-58
2023/01/13 23:16:33;;;;;;;3.17;1.30;;;15.60;71.60;;;;;;10423729;28;20183;-58
2023/01/13 23:21:36;;;;;;;6.03;1.65;;;15.60;71.00;;;;;;10417097;28;20083;-58
2023/01/13 23:26:37;;;;;;;5.95;2.08;;;15.60;71.00;;;;;;10420517;28;20484;-58
2023/01/13 23:31:38;;;;;;;3.08;1.20;;;15.60;71.00;;;;;;10408650;28;20022;-57
2023/01/13 23:36:41;;;;;;;6.15;1.33;;;15.60;71.30;;;;;;10408771;28;20814;-59
2023/01/13 23:41:41;;;;;;;5.13;1.42;;;15.60;71.00;;;;;;10446982;28;20021;-58
2023/01/13 23:46:42;;;;;;;4.72;1.35;;;15.60;71.00;;;;;;10422786;28;20924;-58
2023/01/13 23:51:43;;;;;;;4.35;1.38;;;15.60;71.00;;;;;;10406558;28;20130;-58
2023/01/13 23:56:43;;;;;;;4.95;1.27;;;15.50;70.90;;;;;;10406657;28;20113;-57
